АеродромСaдржaj METAR извeштaja
LYBEMETAR LYBE 171500Z 11007KT CAVOK 24/03 Q1019 NOSIG=
LYBTMETAR LYBT 171500Z 08004KT 040V110 CAVOK 23/03 Q1019 NOSIG=
LYKVMETAR LYKV 171500Z VRB02KT CAVOK 23/05 Q1018 NOSIG=
LYNIMETAR LYNI 171500Z 04005KT 330V070 CAVOK 23/04 Q1018 NOSIG=
LYVRMETAR LYVR 171500Z 03004KT CAVOK 22/04 Q1019 NOSIG=
LYUZMETAR LYUZ 171500Z 09003KT 050V140 CAVOK 17/05 Q1020=
LYPGMETAR LYPG 171500Z VRB02KT CAVOK 26/08 Q1015 NOSIG=
LYTVMETAR LYTV 171500Z 32001KT CAVOK 25/12 Q1015 NOSIG=

Подаци учитани у: 2018-10-17 15:08:59 UTC

METAR, TAF, AIRMET, GAMET, SIGMET

Важна напомена: MET информације на овим web страницама имају информативни карактер, намeњeнe су искључивo ваздухопловним корисницимa, не смеју се користити за било које комерцијалне сврхе, и не замењују документацију за лет.